Time;durP1;ratioP1;P1;durP2;ratioP2;P2;SDS_P1;SDS_P2;PMS_P1;PMS_P2;Temp;Humidity;BMP_temperature;BMP_pressure;BME280_temperature;BME280_humidity;BME280_pressure;Samples;Min_cycle;Max_cycle;Signal;HPM_P1;HPM_P2
2021/07/29 00:01:16;;;;;;;21.37;19.97;;;;;;;;;;5000420;28;20450;-67
2021/07/29 00:03:43;;;;;;;20.37;19.37;;;;;;;;;;5002031;28;20482;-68
2021/07/29 00:06:15;;;;;;;20.83;19.83;;;;;;;;;;5006247;28;20450;-67
2021/07/29 00:08:42;;;;;;;21.33;20.23;;;;;;;;;;5004623;28;20442;-66
2021/07/29 00:11:10;;;;;;;21.10;20.00;;;;;;;;;;5003036;28;20465;-65
2021/07/29 00:13:37;;;;;;;20.80;19.70;;;;;;;;;;5031336;22;20480;-69
2021/07/29 00:16:05;;;;;;;20.57;19.57;;;;;;;;;;5033140;28;20461;-68
2021/07/29 00:21:18;;;;;;;21.07;19.70;;;;;;;;;;5033209;28;20790;-69
2021/07/29 00:23:48;;;;;;;21.00;19.80;;;;;;;;;;5037299;28;20488;-69
2021/07/29 00:26:16;;;;;;;21.50;20.20;;;;;;;;;;5044391;28;20934;-69
2021/07/29 00:28:43;;;;;;;21.23;20.00;;;;;;;;;;5034234;28;20459;-68
2021/07/29 00:31:11;;;;;;;22.40;20.80;;;;;;;;;;5034145;28;20847;-69
2021/07/29 00:33:38;;;;;;;22.57;20.87;;;;;;;;;;5039298;28;20444;-68
2021/07/29 00:36:06;;;;;;;22.30;20.57;;;;;;;;;;5038320;28;20448;-68
2021/07/29 00:38:34;;;;;;;22.43;21.10;;;;;;;;;;5043327;28;20939;-68
2021/07/29 00:41:01;;;;;;;20.90;19.70;;;;;;;;;;5039345;28;20444;-68
2021/07/29 00:43:28;;;;;;;21.53;19.90;;;;;;;;;;5047085;28;20484;-68
2021/07/29 00:45:56;;;;;;;21.37;19.97;;;;;;;;;;5044647;28;20454;-68
2021/07/29 00:48:25;;;;;;;21.10;19.77;;;;;;;;;;5045448;28;20495;-68
2021/07/29 00:50:52;;;;;;;21.50;20.23;;;;;;;;;;5039086;28;20448;-68
2021/07/29 00:53:20;;;;;;;21.57;20.10;;;;;;;;;;5047802;28;20475;-68
2021/07/29 00:55:47;;;;;;;21.10;19.70;;;;;;;;;;5042064;28;20869;-69
2021/07/29 00:58:14;;;;;;;20.50;19.40;;;;;;;;;;5043644;28;20449;-68
2021/07/29 01:00:41;;;;;;;21.03;19.83;;;;;;;;;;5042909;28;20454;-68
2021/07/29 01:03:08;;;;;;;20.07;19.07;;;;;;;;;;5046326;28;20486;-69
2021/07/29 01:05:37;;;;;;;21.50;20.30;;;;;;;;;;5041712;28;20991;-69
2021/07/29 01:08:04;;;;;;;21.03;20.00;;;;;;;;;;5049201;28;20454;-71
2021/07/29 01:10:31;;;;;;;21.10;19.90;;;;;;;;;;5037729;28;20951;-69
2021/07/29 01:12:58;;;;;;;22.70;20.70;;;;;;;;;;5044185;28;20458;-68
2021/07/29 01:15:25;;;;;;;20.60;19.50;;;;;;;;;;5044463;28;20480;-68
2021/07/29 01:17:53;;;;;;;21.03;20.03;;;;;;;;;;5057069;28;20859;-70
2021/07/29 01:20:22;;;;;;;21.60;20.30;;;;;;;;;;5060186;28;20448;-68
2021/07/29 01:22:50;;;;;;;21.87;20.47;;;;;;;;;;5041730;28;20479;-68
2021/07/29 01:25:17;;;;;;;20.73;19.63;;;;;;;;;;5040654;28;20479;-67
2021/07/29 01:27:44;;;;;;;21.57;20.17;;;;;;;;;;5042392;28;20448;-68
2021/07/29 01:30:12;;;;;;;21.90;20.33;;;;;;;;;;5038249;28;20451;-68
2021/07/29 01:32:40;;;;;;;22.20;20.70;;;;;;;;;;5043518;28;20452;-68
2021/07/29 01:35:09;;;;;;;20.57;19.47;;;;;;;;;;5042987;28;20471;-68
2021/07/29 01:37:38;;;;;;;21.20;20.10;;;;;;;;;;5042258;28;20456;-68
2021/07/29 01:40:06;;;;;;;20.87;19.77;;;;;;;;;;5044449;28;20881;-68
2021/07/29 01:42:34;;;;;;;21.33;20.23;;;;;;;;;;5043084;28;20490;-69
2021/07/29 01:45:01;;;;;;;21.80;20.40;;;;;;;;;;5044101;28;20992;-67
2021/07/29 01:47:28;;;;;;;21.27;20.10;;;;;;;;;;5040344;28;20976;-67
2021/07/29 01:49:56;;;;;;;20.80;19.60;;;;;;;;;;5045162;28;20456;-70
2021/07/29 01:52:23;;;;;;;21.07;19.90;;;;;;;;;;5043090;28;20484;-68
2021/07/29 01:54:51;;;;;;;21.03;19.80;;;;;;;;;;5041184;28;20473;-68
2021/07/29 01:57:19;;;;;;;20.60;19.50;;;;;;;;;;5044957;28;20535;-68
2021/07/29 01:59:47;;;;;;;20.50;19.50;;;;;;;;;;5049572;28;20452;-68
2021/07/29 02:02:14;;;;;;;20.17;19.17;;;;;;;;;;5042306;28;20452;-68
2021/07/29 02:04:41;;;;;;;21.17;19.87;;;;;;;;;;5043184;28;20484;-69
2021/07/29 02:07:08;;;;;;;20.70;19.60;;;;;;;;;;5042908;28;20453;-67
2021/07/29 02:09:35;;;;;;;21.67;20.40;;;;;;;;;;5039891;28;20448;-67
2021/07/29 02:12:04;;;;;;;20.73;19.73;;;;;;;;;;5044088;28;20451;-68
2021/07/29 02:14:31;;;;;;;20.57;19.47;;;;;;;;;;5043077;28;20497;-67
2021/07/29 02:16:58;;;;;;;22.17;20.80;;;;;;;;;;5041255;28;20452;-67
2021/07/29 02:19:25;;;;;;;22.90;21.10;;;;;;;;;;5041934;28;20461;-67
2021/07/29 02:21:52;;;;;;;22.00;20.70;;;;;;;;;;5043278;28;20981;-67
2021/07/29 02:24:20;;;;;;;21.53;20.23;;;;;;;;;;5040901;28;20492;-68
2021/07/29 02:26:47;;;;;;;20.70;19.60;;;;;;;;;;5044852;28;20448;-68
2021/07/29 02:29:15;;;;;;;21.73;20.53;;;;;;;;;;5037293;28;20981;-67
2021/07/29 02:31:42;;;;;;;22.90;21.37;;;;;;;;;;5038520;28;20454;-67
2021/07/29 02:34:10;;;;;;;20.97;19.87;;;;;;;;;;5040189;28;20471;-67
2021/07/29 02:36:37;;;;;;;21.60;20.30;;;;;;;;;;5043291;28;20447;-67
2021/07/29 02:39:04;;;;;;;21.20;19.63;;;;;;;;;;5042916;28;20440;-68
2021/07/29 02:41:33;;;;;;;21.87;20.67;;;;;;;;;;5039805;28;20539;-68
2021/07/29 02:44:00;;;;;;;21.90;20.60;;;;;;;;;;5033402;28;21018;-68
2021/07/29 02:46:29;;;;;;;21.70;20.60;;;;;;;;;;5027644;28;20465;-68
2021/07/29 02:48:56;;;;;;;21.90;20.60;;;;;;;;;;5014345;28;20457;-68
2021/07/29 02:51:23;;;;;;;22.33;20.93;;;;;;;;;;5013826;28;20460;-68
2021/07/29 02:53:50;;;;;;;22.20;21.10;;;;;;;;;;5014055;28;20980;-68
2021/07/29 02:56:17;;;;;;;21.73;20.43;;;;;;;;;;5018772;28;20476;-68
2021/07/29 02:58:47;;;;;;;22.10;20.70;;;;;;;;;;5043046;28;20453;-68
2021/07/29 03:01:14;;;;;;;21.53;20.10;;;;;;;;;;5036513;28;20547;-68
2021/07/29 03:03:42;;;;;;;22.77;20.83;;;;;;;;;;5033564;28;20489;-69
2021/07/29 03:06:10;;;;;;;21.37;19.97;;;;;;;;;;5029991;28;20450;-69
2021/07/29 03:08:37;;;;;;;21.73;20.33;;;;;;;;;;5020446;28;20448;-68
2021/07/29 03:11:04;;;;;;;21.40;20.20;;;;;;;;;;5053459;28;20448;-69
2021/07/29 03:13:31;;;;;;;21.43;20.33;;;;;;;;;;5053432;28;20443;-69
2021/07/29 03:15:58;;;;;;;22.60;21.10;;;;;;;;;;5051058;28;20903;-68
2021/07/29 03:18:26;;;;;;;22.40;20.80;;;;;;;;;;5033331;28;20870;-68
2021/07/29 03:20:54;;;;;;;21.20;20.10;;;;;;;;;;5049745;28;20817;-68
2021/07/29 03:23:21;;;;;;;22.67;21.37;;;;;;;;;;5052813;28;20495;-67
2021/07/29 03:25:50;;;;;;;22.03;20.80;;;;;;;;;;5052773;28;20452;-67
2021/07/29 03:28:17;;;;;;;23.00;20.83;;;;;;;;;;5032429;28;20451;-67
2021/07/29 03:30:44;;;;;;;22.60;21.20;;;;;;;;;;5032860;28;20456;-67
2021/07/29 03:33:11;;;;;;;22.50;20.70;;;;;;;;;;5033268;28;20464;-67
2021/07/29 03:35:38;;;;;;;22.30;21.00;;;;;;;;;;5032835;28;20472;-68
2021/07/29 03:38:07;;;;;;;21.40;20.30;;;;;;;;;;5014383;28;20464;-68
2021/07/29 03:40:35;;;;;;;22.07;20.70;;;;;;;;;;5047751;28;20448;-69
2021/07/29 03:43:02;;;;;;;21.00;19.80;;;;;;;;;;5052460;28;20885;-69
2021/07/29 03:45:30;;;;;;;21.33;20.17;;;;;;;;;;5052372;28;20471;-69
2021/07/29 03:47:57;;;;;;;21.40;20.10;;;;;;;;;;5029960;28;20486;-68
2021/07/29 03:50:24;;;;;;;22.40;21.20;;;;;;;;;;5032340;28;20463;-68
2021/07/29 03:52:51;;;;;;;21.13;20.03;;;;;;;;;;5042273;28;20456;-68
2021/07/29 03:55:20;;;;;;;20.70;19.60;;;;;;;;;;5052695;28;21037;-68
2021/07/29 03:57:47;;;;;;;21.33;20.23;;;;;;;;;;5036253;28;20955;-68
2021/07/29 04:00:15;;;;;;;21.27;19.87;;;;;;;;;;5032818;28;20977;-68
2021/07/29 04:02:42;;;;;;;21.90;20.80;;;;;;;;;;5033092;28;20452;-68
2021/07/29 04:05:10;;;;;;;23.67;21.97;;;;;;;;;;5032405;28;20866;-68
2021/07/29 04:07:37;;;;;;;22.13;20.53;;;;;;;;;;5018609;28;20504;-68
2021/07/29 04:10:05;;;;;;;22.10;20.60;;;;;;;;;;5013084;28;20819;-68
2021/07/29 04:12:33;;;;;;;22.63;21.23;;;;;;;;;;5013141;28;20455;-69
2021/07/29 04:15:01;;;;;;;23.47;21.83;;;;;;;;;;5012364;28;20477;-68
2021/07/29 04:17:28;;;;;;;22.73;21.20;;;;;;;;;;5025256;28;20457;-69
2021/07/29 04:19:57;;;;;;;23.40;21.27;;;;;;;;;;5032626;28;20469;-69
2021/07/29 04:22:24;;;;;;;22.90;21.20;;;;;;;;;;5032215;28;20507;-69
2021/07/29 04:24:53;;;;;;;22.37;21.00;;;;;;;;;;5032403;28;20575;-69
2021/07/29 04:27:20;;;;;;;22.50;21.03;;;;;;;;;;5031968;28;20970;-69
2021/07/29 04:29:49;;;;;;;22.83;21.33;;;;;;;;;;5032371;28;20448;-68
2021/07/29 04:32:16;;;;;;;22.80;21.37;;;;;;;;;;5031667;28;20449;-69
2021/07/29 04:34:43;;;;;;;22.90;21.60;;;;;;;;;;5044702;28;20486;-69
2021/07/29 04:37:10;;;;;;;22.70;20.87;;;;;;;;;;5052084;28;20998;-69
2021/07/29 04:39:41;;;;;;;22.13;20.87;;;;;;;;;;5041307;28;20491;-69
2021/07/29 04:42:08;;;;;;;22.53;20.60;;;;;;;;;;5031827;28;20468;-69
2021/07/29 04:44:35;;;;;;;21.50;20.20;;;;;;;;;;5032028;28;20520;-68
2021/07/29 04:47:04;;;;;;;22.33;21.23;;;;;;;;;;5032333;28;20455;-68
2021/07/29 04:49:31;;;;;;;22.10;20.93;;;;;;;;;;5036219;28;20467;-69
2021/07/29 04:51:58;;;;;;;22.60;21.17;;;;;;;;;;5035864;28;20455;-69
2021/07/29 04:54:25;;;;;;;22.73;21.43;;;;;;;;;;5035411;28;20468;-69
2021/07/29 04:56:52;;;;;;;22.40;21.00;;;;;;;;;;5035332;28;20453;-68
2021/07/29 04:59:21;;;;;;;23.40;21.70;;;;;;;;;;5035673;28;20453;-69
2021/07/29 05:01:48;;;;;;;23.17;21.80;;;;;;;;;;5035337;28;20468;-69
2021/07/29 05:04:16;;;;;;;21.97;20.50;;;;;;;;;;5035650;28;20488;-69
2021/07/29 05:06:44;;;;;;;22.60;21.20;;;;;;;;;;5034897;28;20449;-69
2021/07/29 05:09:11;;;;;;;22.20;20.70;;;;;;;;;;5035424;28;20459;-68
2021/07/29 05:11:38;;;;;;;22.30;20.90;;;;;;;;;;5034316;28;20949;-68
2021/07/29 05:14:05;;;;;;;30.57;28.77;;;;;;;;;;5049609;28;21013;-68
2021/07/29 05:16:32;;;;;;;21.70;20.40;;;;;;;;;;5049905;28;20449;-68
2021/07/29 05:19:00;;;;;;;21.50;20.30;;;;;;;;;;5034886;28;20455;-68
2021/07/29 05:21:30;;;;;;;22.20;20.57;;;;;;;;;;5035436;28;20513;-68
2021/07/29 05:23:57;;;;;;;21.20;19.90;;;;;;;;;;5054808;28;20484;-68
2021/07/29 05:26:24;;;;;;;22.30;20.63;;;;;;;;;;5055136;28;20443;-69
2021/07/29 05:28:51;;;;;;;20.97;19.80;;;;;;;;;;5054778;28;20814;-68
2021/07/29 05:31:19;;;;;;;21.93;20.63;;;;;;;;;;5049259;28;20594;-68
2021/07/29 05:33:46;;;;;;;21.50;20.23;;;;;;;;;;5034755;28;20471;-68
2021/07/29 05:36:13;;;;;;;21.30;19.90;;;;;;;;;;5034511;28;20968;-68
2021/07/29 05:38:41;;;;;;;21.37;20.07;;;;;;;;;;5034844;28;20523;-68
2021/07/29 05:41:09;;;;;;;20.83;19.47;;;;;;;;;;5034664;28;20444;-68
2021/07/29 05:43:36;;;;;;;20.60;19.37;;;;;;;;;;5034537;28;20452;-68
2021/07/29 05:46:07;;;;;;;20.83;19.53;;;;;;;;;;5033464;28;20465;-67
2021/07/29 05:48:34;;;;;;;20.23;19.13;;;;;;;;;;5034647;28;20440;-68
2021/07/29 05:51:02;;;;;;;20.53;19.33;;;;;;;;;;5034573;28;20536;-65
2021/07/29 05:53:29;;;;;;;21.30;19.70;;;;;;;;;;5034981;28;20449;-66
2021/07/29 05:55:59;;;;;;;22.17;20.13;;;;;;;;;;5035182;28;20954;-69
2021/07/29 05:58:26;;;;;;;21.97;19.93;;;;;;;;;;5038187;28;20479;-69
2021/07/29 06:00:53;;;;;;;20.97;19.67;;;;;;;;;;5042578;28;20453;-68
2021/07/29 06:03:20;;;;;;;23.33;21.30;;;;;;;;;;5034285;28;20445;-67
2021/07/29 06:05:47;;;;;;;21.23;19.40;;;;;;;;;;5034344;28;20578;-67
2021/07/29 06:08:15;;;;;;;21.60;19.90;;;;;;;;;;5035001;28;20531;-66
2021/07/29 06:10:42;;;;;;;22.20;20.80;;;;;;;;;;5035428;28;20543;-67
2021/07/29 06:13:10;;;;;;;21.93;20.30;;;;;;;;;;5035733;28;20788;-66
2021/07/29 06:15:37;;;;;;;20.70;19.40;;;;;;;;;;5049952;22;21008;-64
2021/07/29 06:18:09;;;;;;;21.40;19.90;;;;;;;;;;5028409;28;20455;-65
2021/07/29 06:20:36;;;;;;;21.03;19.73;;;;;;;;;;5027781;28;20523;-63
2021/07/29 06:23:03;;;;;;;21.00;19.70;;;;;;;;;;5032500;28;20455;-63
2021/07/29 06:25:30;;;;;;;20.70;19.50;;;;;;;;;;5032687;28;20500;-67
2021/07/29 06:27:57;;;;;;;21.10;20.00;;;;;;;;;;5032823;28;20839;-64
2021/07/29 06:30:26;;;;;;;20.73;19.60;;;;;;;;;;5032820;28;20450;-64
2021/07/29 06:32:53;;;;;;;20.93;19.83;;;;;;;;;;5032596;28;20579;-64
2021/07/29 06:35:20;;;;;;;21.40;20.20;;;;;;;;;;5016051;28;21020;-64
2021/07/29 06:37:47;;;;;;;20.53;19.40;;;;;;;;;;5012965;28;20461;-64
2021/07/29 06:40:15;;;;;;;21.20;20.07;;;;;;;;;;5012740;28;20454;-64
2021/07/29 06:42:42;;;;;;;21.03;19.60;;;;;;;;;;5012727;28;20450;-64
2021/07/29 06:45:09;;;;;;;20.47;19.20;;;;;;;;;;5012947;28;20879;-64
2021/07/29 06:47:38;;;;;;;21.60;20.40;;;;;;;;;;5012923;28;20456;-64
2021/07/29 06:50:05;;;;;;;21.07;19.87;;;;;;;;;;5012632;28;20457;-67
2021/07/29 06:52:33;;;;;;;21.63;20.03;;;;;;;;;;4995295;28;20961;-65
2021/07/29 06:55:00;;;;;;;21.00;19.83;;;;;;;;;;4993482;28;20469;-67
2021/07/29 06:57:27;;;;;;;21.17;20.07;;;;;;;;;;4994598;28;20830;-66
2021/07/29 06:59:54;;;;;;;21.37;20.13;;;;;;;;;;4993303;28;20459;-67
2021/07/29 07:02:21;;;;;;;21.50;20.30;;;;;;;;;;4992666;28;20954;-65
2021/07/29 07:04:49;;;;;;;21.40;20.30;;;;;;;;;;4992996;28;20485;-68
2021/07/29 07:07:17;;;;;;;21.97;20.70;;;;;;;;;;4993514;28;20454;-67
2021/07/29 07:09:44;;;;;;;21.23;20.13;;;;;;;;;;4993640;28;20457;-67
2021/07/29 07:12:12;;;;;;;21.73;20.53;;;;;;;;;;4993393;28;20471;-67
2021/07/29 07:14:39;;;;;;;21.23;20.17;;;;;;;;;;4993025;28;20488;-67
2021/07/29 07:17:07;;;;;;;21.67;20.30;;;;;;;;;;4992701;28;20446;-67
2021/07/29 07:19:35;;;;;;;22.07;20.97;;;;;;;;;;4993323;28;20446;-67
2021/07/29 07:22:03;;;;;;;22.07;20.80;;;;;;;;;;4992948;28;20457;-67
2021/07/29 07:24:31;;;;;;;21.13;20.03;;;;;;;;;;4993057;28;20486;-68
2021/07/29 07:26:58;;;;;;;21.20;20.00;;;;;;;;;;4992847;28;21020;-67
2021/07/29 07:29:25;;;;;;;20.70;19.70;;;;;;;;;;5001506;28;20458;-67
2021/07/29 07:31:52;;;;;;;21.57;20.37;;;;;;;;;;5012337;28;20818;-67
2021/07/29 07:34:19;;;;;;;21.20;20.10;;;;;;;;;;5012277;28;20544;-67
2021/07/29 07:36:46;;;;;;;20.50;19.50;;;;;;;;;;5011769;28;20829;-68
2021/07/29 07:39:15;;;;;;;21.10;20.00;;;;;;;;;;5012193;28;20457;-67
2021/07/29 07:41:42;;;;;;;20.80;19.60;;;;;;;;;;5011884;28;20480;-67
2021/07/29 07:44:09;;;;;;;20.43;19.30;;;;;;;;;;5011752;28;20455;-67
2021/07/29 07:46:36;;;;;;;20.97;19.87;;;;;;;;;;5010688;28;20460;-66
2021/07/29 07:49:03;;;;;;;20.53;19.20;;;;;;;;;;5012155;28;20453;-67
2021/07/29 07:51:30;;;;;;;21.13;19.93;;;;;;;;;;5012938;28;20966;-65
2021/07/29 07:53:57;;;;;;;20.50;19.40;;;;;;;;;;5012190;28;20449;-67
2021/07/29 07:56:26;;;;;;;20.10;19.00;;;;;;;;;;5012409;28;20537;-67
2021/07/29 07:58:53;;;;;;;20.93;19.73;;;;;;;;;;5011878;28;20878;-67
2021/07/29 08:01:20;;;;;;;19.60;18.60;;;;;;;;;;5012235;28;20450;-67
2021/07/29 08:03:48;;;;;;;20.77;19.37;;;;;;;;;;5011449;28;20457;-69
2021/07/29 08:06:15;;;;;;;21.13;20.10;;;;;;;;;;5012264;28;20484;-67
2021/07/29 08:08:43;;;;;;;20.80;19.70;;;;;;;;;;5011606;28;20462;-65
2021/07/29 08:11:10;;;;;;;20.63;19.40;;;;;;;;;;5011534;28;20932;-67
2021/07/29 08:13:39;;;;;;;20.67;19.57;;;;;;;;;;5011535;28;20441;-67
2021/07/29 08:16:09;;;;;;;19.90;18.90;;;;;;;;;;5011485;28;20481;-67
2021/07/29 08:18:36;;;;;;;21.77;20.57;;;;;;;;;;5011982;28;20453;-67
2021/07/29 08:21:09;;;;;;;21.30;20.20;;;;;;;;;;5010340;28;20454;-67
2021/07/29 08:23:36;;;;;;;21.23;20.03;;;;;;;;;;5014163;28;20919;-64
2021/07/29 08:26:05;;;;;;;20.23;19.13;;;;;;;;;;5015024;28;20584;-64
2021/07/29 08:28:32;;;;;;;20.70;19.43;;;;;;;;;;5015828;28;20508;-64
2021/07/29 08:31:00;;;;;;;19.83;18.80;;;;;;;;;;5015059;28;20536;-64
2021/07/29 08:33:28;;;;;;;20.67;19.50;;;;;;;;;;5015661;28;20464;-64
2021/07/29 08:35:55;;;;;;;21.33;19.70;;;;;;;;;;5014721;28;20471;-64
2021/07/29 08:38:22;;;;;;;19.30;18.03;;;;;;;;;;4996130;28;20830;-64
2021/07/29 08:40:53;;;;;;;20.50;19.07;;;;;;;;;;4995320;28;20458;-64
2021/07/29 08:43:20;;;;;;;19.50;18.33;;;;;;;;;;5010850;28;20644;-64
2021/07/29 08:45:50;;;;;;;19.83;18.40;;;;;;;;;;5014958;28;20863;-64
2021/07/29 08:48:20;;;;;;;19.50;18.50;;;;;;;;;;5013809;28;20458;-64
2021/07/29 08:50:48;;;;;;;19.30;18.30;;;;;;;;;;5014583;28;20808;-64
2021/07/29 08:53:15;;;;;;;19.80;18.60;;;;;;;;;;5013937;28;20455;-64
2021/07/29 08:55:42;;;;;;;18.87;17.67;;;;;;;;;;5014770;28;20465;-64
2021/07/29 08:58:10;;;;;;;19.07;17.97;;;;;;;;;;5014743;28;20454;-64
2021/07/29 09:00:37;;;;;;;19.00;17.90;;;;;;;;;;5014698;28;20453;-64
2021/07/29 09:03:24;;;;;;;18.57;17.57;;;;;;;;;;5014486;28;20483;-64
2021/07/29 09:06:01;;;;;;;19.00;17.80;;;;;;;;;;5014796;28;20496;-64
2021/07/29 09:08:29;;;;;;;19.57;18.27;;;;;;;;;;5013467;28;20449;-64
2021/07/29 09:10:56;;;;;;;18.20;17.30;;;;;;;;;;5014716;28;20464;-64
2021/07/29 09:13:23;;;;;;;19.10;18.00;;;;;;;;;;5013948;28;20837;-65
2021/07/29 09:16:09;;;;;;;19.37;18.27;;;;;;;;;;5014314;28;20473;-65
2021/07/29 09:18:39;;;;;;;21.57;20.27;;;;;;;;;;5014272;28;20804;-65
2021/07/29 09:21:12;;;;;;;22.67;21.37;;;;;;;;;;5014802;28;20540;-64
2021/07/29 09:23:39;;;;;;;22.10;20.93;;;;;;;;;;5013718;28;20457;-65
2021/07/29 09:26:06;;;;;;;23.80;22.13;;;;;;;;;;5013182;28;20481;-64
2021/07/29 09:28:35;;;;;;;22.33;21.23;;;;;;;;;;5014378;28;20476;-64
2021/07/29 09:31:16;;;;;;;23.10;21.70;;;;;;;;;;5004222;28;20454;-64
2021/07/29 09:33:56;;;;;;;21.80;20.70;;;;;;;;;;5001927;28;20454;-64
2021/07/29 09:36:24;;;;;;;22.17;21.07;;;;;;;;;;5013751;28;20475;-64
2021/07/29 09:38:51;;;;;;;22.00;20.80;;;;;;;;;;5013567;28;20457;-65
2021/07/29 09:41:25;;;;;;;19.90;18.70;;;;;;;;;;5013369;28;20458;-64
2021/07/29 09:43:54;;;;;;;21.10;20.00;;;;;;;;;;4996512;28;20755;-65
2021/07/29 09:46:22;;;;;;;21.93;20.73;;;;;;;;;;4997698;28;20478;-65
2021/07/29 09:48:50;;;;;;;21.57;20.37;;;;;;;;;;5014017;28;20450;-65
2021/07/29 09:51:19;;;;;;;20.90;19.80;;;;;;;;;;5013206;28;20449;-64
2021/07/29 09:53:46;;;;;;;21.30;20.23;;;;;;;;;;5013083;28;20509;-64
2021/07/29 09:56:14;;;;;;;19.80;18.60;;;;;;;;;;5012493;28;20461;-65
2021/07/29 09:58:42;;;;;;;20.73;19.50;;;;;;;;;;4993747;28;20815;-65
2021/07/29 10:01:10;;;;;;;21.97;20.77;;;;;;;;;;5008671;28;20445;-66
2021/07/29 10:03:39;;;;;;;18.40;17.30;;;;;;;;;;5006803;28;20544;-66
2021/07/29 10:06:07;;;;;;;18.37;17.37;;;;;;;;;;5012576;28;20561;-66
2021/07/29 10:08:38;;;;;;;18.50;17.50;;;;;;;;;;5007528;28;20828;-66
2021/07/29 10:11:07;;;;;;;18.43;17.43;;;;;;;;;;5012439;28;20544;-66
2021/07/29 10:13:35;;;;;;;18.73;17.70;;;;;;;;;;5013533;28;20457;-66
2021/07/29 10:16:02;;;;;;;19.23;18.10;;;;;;;;;;5011470;28;20469;-66
2021/07/29 10:18:49;;;;;;;18.30;17.23;;;;;;;;;;5012038;28;20480;-66
2021/07/29 10:21:23;;;;;;;19.23;18.23;;;;;;;;;;5012130;28;20956;-66
2021/07/29 10:23:56;;;;;;;19.10;18.10;;;;;;;;;;5012884;28;20874;-66
2021/07/29 10:26:23;;;;;;;18.83;17.63;;;;;;;;;;5012256;28;20482;-67
2021/07/29 10:28:50;;;;;;;18.60;17.40;;;;;;;;;;5013159;28;20463;-66
2021/07/29 10:31:18;;;;;;;18.67;17.60;;;;;;;;;;5012382;28;20450;-67
2021/07/29 10:33:46;;;;;;;19.23;18.23;;;;;;;;;;5013059;28;20952;-66
2021/07/29 10:36:32;;;;;;;19.17;18.10;;;;;;;;;;5012424;28;20493;-66
2021/07/29 10:39:06;;;;;;;19.17;17.87;;;;;;;;;;5010220;28;20464;-66
2021/07/29 10:41:50;;;;;;;20.30;19.10;;;;;;;;;;5005810;28;20507;-66
2021/07/29 10:44:35;;;;;;;18.63;17.63;;;;;;;;;;5012531;28;20565;-66
2021/07/29 10:47:03;;;;;;;19.77;18.77;;;;;;;;;;4992838;28;21039;-66
2021/07/29 10:49:45;;;;;;;18.53;17.53;;;;;;;;;;4999351;28;20458;-66
2021/07/29 10:52:13;;;;;;;19.07;17.97;;;;;;;;;;5009626;28;20453;-66
2021/07/29 10:54:42;;;;;;;18.07;17.13;;;;;;;;;;4995016;28;20470;-66
2021/07/29 10:57:10;;;;;;;18.23;17.13;;;;;;;;;;5010629;28;20442;-66
2021/07/29 10:59:38;;;;;;;18.23;17.30;;;;;;;;;;5012451;28;20450;-66
2021/07/29 11:02:07;;;;;;;18.10;17.00;;;;;;;;;;4999020;28;20455;-66
2021/07/29 11:04:49;;;;;;;19.80;18.63;;;;;;;;;;5010659;28;20473;-66
2021/07/29 11:07:16;;;;;;;21.40;19.90;;;;;;;;;;5011353;28;20488;-66
2021/07/29 11:09:45;;;;;;;19.70;18.53;;;;;;;;;;5011863;28;20453;-66
2021/07/29 11:12:14;;;;;;;21.57;20.07;;;;;;;;;;5011384;28;20819;-66
2021/07/29 11:14:41;;;;;;;20.93;19.57;;;;;;;;;;5011693;28;20500;-65
2021/07/29 11:17:08;;;;;;;19.50;18.40;;;;;;;;;;5012214;28;20445;-65
2021/07/29 11:19:43;;;;;;;18.87;17.87;;;;;;;;;;5007496;28;20468;-65
2021/07/29 11:22:11;;;;;;;19.40;18.30;;;;;;;;;;5011750;28;20453;-65
2021/07/29 11:24:39;;;;;;;18.93;17.90;;;;;;;;;;5012214;28;20516;-65
2021/07/29 11:27:11;;;;;;;19.60;18.40;;;;;;;;;;5012316;28;20492;-65
2021/07/29 11:29:52;;;;;;;20.07;18.87;;;;;;;;;;5011404;28;20453;-65
2021/07/29 11:32:21;;;;;;;19.83;18.63;;;;;;;;;;5012008;28;20442;-65
2021/07/29 11:34:56;;;;;;;19.03;18.03;;;;;;;;;;5011589;28;20477;-65
2021/07/29 11:37:23;;;;;;;19.57;18.40;;;;;;;;;;5010341;28;20438;-65
2021/07/29 11:39:50;;;;;;;22.50;20.90;;;;;;;;;;5009222;28;20449;-65
2021/07/29 11:42:18;;;;;;;22.40;20.87;;;;;;;;;;5002809;28;20975;-66
2021/07/29 11:44:47;;;;;;;22.40;21.00;;;;;;;;;;5004514;28;20484;-65
2021/07/29 11:47:15;;;;;;;22.17;20.80;;;;;;;;;;5002614;28;20491;-65
2021/07/29 11:49:46;;;;;;;22.47;21.20;;;;;;;;;;5011592;28;20480;-65
2021/07/29 11:52:14;;;;;;;22.13;20.93;;;;;;;;;;5010400;28;20465;-65
2021/07/29 11:54:41;;;;;;;22.37;21.13;;;;;;;;;;5009979;28;20478;-65
2021/07/29 11:57:08;;;;;;;21.53;20.33;;;;;;;;;;5005020;28;20982;-65
2021/07/29 11:59:37;;;;;;;26.00;24.60;;;;;;;;;;5015918;28;20456;-65
2021/07/29 12:02:04;;;;;;;24.50;23.30;;;;;;;;;;5002751;28;20449;-65
2021/07/29 12:04:32;;;;;;;20.40;19.10;;;;;;;;;;5015067;28;20476;-65
2021/07/29 12:07:00;;;;;;;21.00;19.90;;;;;;;;;;5012260;28;20496;-65
2021/07/29 12:09:27;;;;;;;19.63;18.40;;;;;;;;;;5014852;28;20449;-65
2021/07/29 12:11:55;;;;;;;20.50;19.30;;;;;;;;;;4996139;28;20457;-65
2021/07/29 12:14:23;;;;;;;20.00;18.90;;;;;;;;;;5022559;22;20488;-67
2021/07/29 12:16:52;;;;;;;19.47;18.37;;;;;;;;;;5031201;28;20561;-67
2021/07/29 12:19:19;;;;;;;19.10;18.10;;;;;;;;;;5032089;28;20828;-67
2021/07/29 12:21:47;;;;;;;19.23;18.23;;;;;;;;;;5032775;28;20467;-67
2021/07/29 12:24:14;;;;;;;19.03;18.03;;;;;;;;;;5041742;28;20453;-67
2021/07/29 12:26:42;;;;;;;19.37;18.27;;;;;;;;;;5015055;28;20495;-67
2021/07/29 12:29:09;;;;;;;18.80;17.60;;;;;;;;;;5015222;28;20500;-67
2021/07/29 12:31:44;;;;;;;21.83;20.63;;;;;;;;;;5013771;28;20454;-65
2021/07/29 12:34:13;;;;;;;20.90;19.70;;;;;;;;;;5015301;28;20449;-67
2021/07/29 12:36:44;;;;;;;23.00;21.20;;;;;;;;;;5014460;28;20550;-67
2021/07/29 12:39:11;;;;;;;22.13;20.80;;;;;;;;;;5015299;28;20445;-63
2021/07/29 12:41:39;;;;;;;21.60;20.30;;;;;;;;;;5013911;28;20463;-68
2021/07/29 12:44:16;;;;;;;21.70;20.13;;;;;;;;;;5015250;28;20870;-67
2021/07/29 12:46:43;;;;;;;22.63;21.23;;;;;;;;;;5014236;28;20480;-65
2021/07/29 12:49:11;;;;;;;21.33;19.93;;;;;;;;;;5014649;28;20540;-67
2021/07/29 12:51:40;;;;;;;22.07;20.80;;;;;;;;;;5013327;28;20983;-68
2021/07/29 12:54:08;;;;;;;22.00;20.77;;;;;;;;;;5015002;28;20500;-67
2021/07/29 12:56:35;;;;;;;21.50;20.30;;;;;;;;;;5013868;28;20473;-67
2021/07/29 12:59:02;;;;;;;21.30;20.10;;;;;;;;;;5004619;28;21013;-67
2021/07/29 13:01:30;;;;;;;21.10;19.80;;;;;;;;;;5012361;28;20477;-67
2021/07/29 13:03:57;;;;;;;21.70;20.50;;;;;;;;;;5014482;28;20456;-67
2021/07/29 13:06:24;;;;;;;21.23;20.00;;;;;;;;;;5014064;28;20493;-68
2021/07/29 13:08:54;;;;;;;21.90;20.50;;;;;;;;;;5015001;28;20461;-67
2021/07/29 13:11:21;;;;;;;21.33;20.13;;;;;;;;;;5018918;28;20449;-67
2021/07/29 13:13:48;;;;;;;20.53;19.30;;;;;;;;;;5014857;28;20533;-68
2021/07/29 13:16:15;;;;;;;21.53;20.40;;;;;;;;;;5009784;28;20476;-68
2021/07/29 13:18:43;;;;;;;21.37;19.97;;;;;;;;;;5014355;28;20929;-67
2021/07/29 13:21:10;;;;;;;21.23;20.13;;;;;;;;;;5012052;28;20468;-66
2021/07/29 13:23:37;;;;;;;21.63;20.10;;;;;;;;;;5013529;28;20457;-67
2021/07/29 13:26:06;;;;;;;21.80;20.63;;;;;;;;;;5013650;28;20479;-68
2021/07/29 13:28:33;;;;;;;21.40;20.10;;;;;;;;;;5013555;28;20461;-68
2021/07/29 13:31:02;;;;;;;22.03;20.80;;;;;;;;;;5003389;28;20453;-68
2021/07/29 13:33:29;;;;;;;20.37;19.27;;;;;;;;;;5012230;28;20507;-67
2021/07/29 13:35:56;;;;;;;21.83;20.63;;;;;;;;;;5008681;28;20990;-67
2021/07/29 13:38:23;;;;;;;21.27;19.93;;;;;;;;;;5013174;28;20924;-68
2021/07/29 13:40:51;;;;;;;20.80;19.43;;;;;;;;;;5013741;28;20456;-65
2021/07/29 13:43:20;;;;;;;21.60;20.40;;;;;;;;;;5012746;28;20454;-65
2021/07/29 13:45:47;;;;;;;21.77;20.60;;;;;;;;;;5011721;28;20477;-67
2021/07/29 13:48:14;;;;;;;21.90;20.70;;;;;;;;;;5012066;28;20486;-66
2021/07/29 13:50:43;;;;;;;20.93;19.60;;;;;;;;;;5013294;28;20464;-67
2021/07/29 13:53:10;;;;;;;22.17;20.93;;;;;;;;;;5013591;28;20465;-68
2021/07/29 13:55:37;;;;;;;21.83;20.63;;;;;;;;;;5012534;28;20477;-65
2021/07/29 13:58:05;;;;;;;22.47;21.17;;;;;;;;;;5020371;28;21021;-66
2021/07/29 14:00:33;;;;;;;21.80;20.50;;;;;;;;;;5024632;28;20455;-67
2021/07/29 14:03:01;;;;;;;21.37;20.20;;;;;;;;;;5005198;28;21165;-67
2021/07/29 14:05:30;;;;;;;19.83;18.53;;;;;;;;;;5013322;28;20469;-64
2021/07/29 14:07:58;;;;;;;21.43;19.90;;;;;;;;;;5012772;28;20481;-68
2021/07/29 14:10:25;;;;;;;20.37;18.90;;;;;;;;;;5013376;28;20480;-71
2021/07/29 14:12:52;;;;;;;21.43;20.00;;;;;;;;;;5010215;28;20450;-68
2021/07/29 14:15:19;;;;;;;22.50;21.10;;;;;;;;;;5002626;28;20478;-69
2021/07/29 14:17:53;;;;;;;22.37;21.17;;;;;;;;;;5013127;28;20549;-69
2021/07/29 14:20:26;;;;;;;20.90;19.70;;;;;;;;;;5011908;28;20913;-67
2021/07/29 14:23:11;;;;;;;21.40;20.10;;;;;;;;;;5012006;28;20453;-70
2021/07/29 14:25:40;;;;;;;20.73;19.63;;;;;;;;;;5013325;28;20480;-70